Time;durP1;ratioP1;P1;durP2;ratioP2;P2;SDS_P1;SDS_P2;PMS_P1;PMS_P2;Temp;Humidity;BMP_temperature;BMP_pressure;BME280_temperature;BME280_humidity;BME280_pressure;Samples;Min_cycle;Max_cycle;Signal;HPM_P1;HPM_P2
2021/08/30 00:00:38;;;;;;;7.55;2.72;;;;;;;19.04;55.49;101536.13;4996525;28;20114;-91
2021/08/30 00:03:04;;;;;;;7.63;2.85;;;;;;;18.86;56.54;101530.56;5014402;28;20437;-91
2021/08/30 00:05:29;;;;;;;3.00;2.13;;;;;;;19.03;56.33;101531.78;5014047;28;20022;-91
2021/08/30 00:07:55;;;;;;;7.60;2.97;;;;;;;19.08;55.94;101523.41;5014324;28;20480;-91
2021/08/30 00:10:20;;;;;;;3.42;2.20;;;;;;;19.04;56.18;101544.13;5013875;28;20026;-90
2021/08/30 00:12:46;;;;;;;5.97;2.70;;;;;;;19.00;56.64;101537.38;5013788;28;20112;-91
2021/08/30 00:15:13;;;;;;;5.72;2.45;;;;;;;19.01;56.38;101533.72;5014056;28;20030;-90
2021/08/30 00:17:39;;;;;;;3.63;2.30;;;;;;;18.82;56.51;101534.47;5013702;28;20030;-91
2021/08/30 00:20:12;;;;;;;6.97;2.00;;;;;;;18.93;56.71;101537.03;5014071;28;20080;-91
2021/08/30 00:22:38;;;;;;;4.05;2.05;;;;;;;18.83;57.24;101536.13;5013551;28;20021;-91
2021/08/30 00:25:04;;;;;;;5.95;2.40;;;;;;;18.72;57.85;101537.03;5013638;28;20087;-91
2021/08/30 00:27:30;;;;;;;7.03;2.35;;;;;;;18.77;56.84;101533.97;5013496;28;20034;-91
2021/08/30 00:29:56;;;;;;;6.20;2.55;;;;;;;18.84;56.64;101537.84;5013768;28;20025;-91
2021/08/30 00:32:21;;;;;;;3.55;2.08;;;;;;;18.90;56.65;101532.00;5013550;28;20036;-90
2021/08/30 00:34:47;;;;;;;6.78;2.38;;;;;;;19.00;56.17;101540.03;5013699;28;20109;-91
2021/08/30 00:37:12;;;;;;;4.38;1.75;;;;;;;18.99;56.04;101533.84;5013536;28;20384;-91
2021/08/30 00:39:37;;;;;;;4.60;2.05;;;;;;;18.95;55.88;101540.41;5013188;28;20041;-91
2021/08/30 00:42:03;;;;;;;3.67;2.00;;;;;;;19.06;55.87;101536.00;5013157;28;20033;-91
2021/08/30 00:44:28;;;;;;;3.22;2.13;;;;;;;18.98;56.53;101545.47;5012929;28;20108;-91
2021/08/30 00:46:54;;;;;;;3.13;1.60;;;;;;;18.90;56.73;101539.09;5013055;28;20476;-91
2021/08/30 00:49:21;;;;;;;5.90;2.08;;;;;;;18.80;56.57;101547.91;5013100;28;20029;-91
2021/08/30 00:51:47;;;;;;;5.80;2.15;;;;;;;18.80;56.48;101547.91;5013165;28;20025;-91
2021/08/30 00:54:13;;;;;;;4.05;2.30;;;;;;;18.80;55.85;101549.72;5013020;28;20020;-90
2021/08/30 00:56:38;;;;;;;4.03;2.30;;;;;;;18.83;55.41;101552.94;4995215;28;20045;-90
2021/08/30 00:59:04;;;;;;;5.00;2.60;;;;;;;18.82;55.48;101545.94;5012761;28;20022;-91
2021/08/30 01:01:29;;;;;;;4.78;2.45;;;;;;;18.66;56.02;101548.19;5012976;28;20022;-91
2021/08/30 01:03:55;;;;;;;3.67;2.70;;;;;;;18.65;55.68;101548.31;5012834;28;20395;-92
2021/08/30 01:06:27;;;;;;;6.50;2.70;;;;;;;18.72;55.38;101539.69;5012512;28;20113;-91
2021/08/30 01:09:06;;;;;;;6.10;2.47;;;;;;;18.90;54.98;101545.31;5012907;28;20084;-91
2021/08/30 01:11:34;;;;;;;6.28;2.40;;;;;;;18.82;55.23;101551.28;5012860;28;20028;-90
2021/08/30 01:14:07;;;;;;;6.78;3.35;;;;;;;18.85;55.78;101552.81;5012727;28;20033;-91
2021/08/30 01:16:34;;;;;;;4.70;2.90;;;;;;;18.78;55.55;101552.47;5012421;28;20079;-91
2021/08/30 01:19:00;;;;;;;6.40;2.30;;;;;;;18.78;55.52;101547.16;4994922;28;20025;-90
2021/08/30 01:21:37;;;;;;;5.53;2.38;;;;;;;18.87;55.49;101540.22;5012401;28;20168;-90
2021/08/30 01:24:05;;;;;;;4.38;2.97;;;;;;;18.61;56.19;101543.25;5012731;28;20118;-91
2021/08/30 01:26:38;;;;;;;3.25;2.38;;;;;;;18.86;55.49;101543.88;5012156;28;20105;-90
2021/08/30 01:29:25;;;;;;;8.13;2.88;;;;;;;18.92;55.38;101554.00;4994743;28;20034;-90
2021/08/30 01:32:29;;;;;;;6.20;3.25;;;;;;;18.68;55.88;101561.34;4982429;28;20030;-91
2021/08/30 01:34:57;;;;;;;4.63;2.92;;;;;;;18.65;55.84;101543.84;5009294;28;20256;-91
2021/08/30 01:37:24;;;;;;;6.63;3.25;;;;;;;18.44;56.08;101546.47;5012560;28;20488;-91
2021/08/30 01:39:50;;;;;;;8.82;3.17;;;;;;;18.46;55.69;101543.69;5012399;28;20026;-90
2021/08/30 01:42:16;;;;;;;5.68;3.05;;;;;;;18.52;55.79;101548.47;4994803;28;20032;-91
2021/08/30 01:44:42;;;;;;;8.52;2.95;;;;;;;18.41;55.91;101554.72;5011977;28;20030;-90
2021/08/30 01:47:08;;;;;;;3.10;2.05;;;;;;;18.36;56.00;101548.91;5012292;28;20092;-90
2021/08/30 01:49:33;;;;;;;7.30;2.63;;;;;;;18.49;55.73;101544.28;5011653;28;20034;-90
2021/08/30 01:51:59;;;;;;;7.07;2.53;;;;;;;18.51;56.01;101547.66;5012067;28;20369;-91
2021/08/30 01:54:25;;;;;;;5.10;2.58;;;;;;;18.40;56.26;101539.72;5011979;28;20030;-91
2021/08/30 01:56:54;;;;;;;4.05;2.30;;;;;;;18.48;56.23;101541.75;5012311;28;20053;-90
2021/08/30 02:02:08;;;;;;;5.57;2.60;;;;;;;18.31;56.69;101551.13;5012346;28;20037;-91
2021/08/30 02:04:35;;;;;;;5.55;2.50;;;;;;;18.30;56.65;101546.78;5011948;28;20029;-91
2021/08/30 02:07:02;;;;;;;4.75;2.60;;;;;;;18.16;57.06;101547.91;5011780;28;20038;-90
2021/08/30 02:09:27;;;;;;;6.75;2.67;;;;;;;18.18;57.04;101545.97;5011999;28;20476;-91
2021/08/30 02:11:53;;;;;;;3.25;2.20;;;;;;;18.12;57.11;101544.66;5012111;28;20026;-91
2021/08/30 02:14:19;;;;;;;3.88;2.53;;;;;;;18.18;57.21;101552.13;5011999;28;20033;-91
2021/08/30 02:16:48;;;;;;;5.78;2.92;;;;;;;18.17;57.29;101550.44;5011968;28;20407;-91
2021/08/30 02:19:24;;;;;;;5.65;2.33;;;;;;;18.28;56.97;101546.88;5011960;28;20030;-91
2021/08/30 02:21:54;;;;;;;3.00;2.03;;;;;;;18.30;57.25;101554.75;5011858;28;20061;-91
2021/08/30 02:24:40;;;;;;;4.80;2.47;;;;;;;18.23;57.32;101555.25;4994263;28;20468;-91
2021/08/30 02:27:25;;;;;;;7.13;2.38;;;;;;;18.31;57.56;101567.91;5011731;28;20061;-91
2021/08/30 02:30:08;;;;;;;5.53;2.50;;;;;;;18.23;57.40;101557.91;5012168;28;20349;-91
2021/08/30 02:32:36;;;;;;;5.13;2.13;;;;;;;18.11;57.91;101561.59;5011755;28;20029;-90
2021/08/30 02:35:04;;;;;;;4.63;2.25;;;;;;;18.14;57.81;101563.97;5011640;28;20030;-91
2021/08/30 02:37:32;;;;;;;3.33;2.30;;;;;;;18.13;58.27;101564.97;5012195;28;20034;-90
2021/08/30 02:40:00;;;;;;;4.47;2.40;;;;;;;18.02;57.92;101564.97;5013454;28;20033;-91
2021/08/30 02:42:28;;;;;;;7.90;2.15;;;;;;;18.06;57.82;101558.44;5011979;28;20045;-91
2021/08/30 02:44:54;;;;;;;4.53;2.70;;;;;;;17.95;57.85;101561.13;5011765;28;20029;-91
2021/08/30 02:47:21;;;;;;;6.82;3.25;;;;;;;18.09;57.74;101563.53;5011742;28;20059;-91
2021/08/30 02:49:47;;;;;;;5.28;2.90;;;;;;;18.06;58.11;101569.06;5011381;28;20036;-91
2021/08/30 02:52:15;;;;;;;4.72;2.20;;;;;;;18.05;57.61;101570.06;5011670;28;20026;-90
2021/08/30 02:54:42;;;;;;;5.03;2.45;;;;;;;17.90;57.83;101553.53;5011373;28;20046;-91
2021/08/30 02:57:08;;;;;;;5.05;2.42;;;;;;;17.79;57.83;101566.78;5011575;28;20145;-91
2021/08/30 02:59:34;;;;;;;5.22;2.58;;;;;;;17.93;57.90;101563.91;5011823;28;20176;-91
2021/08/30 03:02:01;;;;;;;6.93;2.50;;;;;;;17.74;57.98;101572.47;5013159;28;20033;-91
2021/08/30 03:04:29;;;;;;;3.38;2.10;;;;;;;17.93;57.65;101565.72;5015068;28;20385;-91
2021/08/30 03:06:55;;;;;;;4.65;2.55;;;;;;;17.89;57.90;101570.47;5014924;28;20030;-91
2021/08/30 03:09:21;;;;;;;10.05;3.58;;;;;;;17.86;57.91;101561.88;5014904;28;20026;-91
2021/08/30 03:11:49;;;;;;;6.55;1.80;;;;;;;17.86;58.15;101565.38;5014884;28;20499;-91
2021/08/30 03:14:18;;;;;;;6.20;2.13;;;;;;;17.80;58.20;101558.72;5014889;28;20037;-91
2021/08/30 03:16:43;;;;;;;4.68;1.88;;;;;;;17.90;57.88;101560.66;5014753;28;20484;-91
2021/08/30 03:19:12;;;;;;;3.65;1.92;;;;;;;17.87;58.17;101559.09;5014691;28;20105;-91
2021/08/30 03:21:38;;;;;;;6.57;2.15;;;;;;;17.81;58.29;101555.09;5014609;28;20049;-91
2021/08/30 03:24:06;;;;;;;4.53;2.00;;;;;;;17.87;58.18;101555.59;4997088;28;20062;-90
2021/08/30 03:26:32;;;;;;;4.75;2.00;;;;;;;17.89;58.25;101557.16;5014271;28;20498;-91
2021/08/30 03:28:58;;;;;;;6.43;2.13;;;;;;;17.78;58.71;101551.84;5014766;28;20469;-91
2021/08/30 03:31:27;;;;;;;3.55;1.75;;;;;;;17.79;59.18;101551.72;5014497;28;20036;-91
2021/08/30 03:33:52;;;;;;;4.32;2.17;;;;;;;17.70;59.15;101551.59;5016697;28;20021;-90
2021/08/30 03:36:18;;;;;;;2.78;1.73;;;;;;;17.78;58.53;101550.00;5015717;28;20030;-91
2021/08/30 03:38:44;;;;;;;6.00;2.22;;;;;;;17.79;58.40;101546.41;5014490;28;20037;-91
2021/08/30 03:41:11;;;;;;;2.88;1.80;;;;;;;17.79;58.64;101546.41;5014464;28;20443;-91
2021/08/30 03:43:36;;;;;;;2.85;1.63;;;;;;;17.73;58.74;101541.59;5014188;28;20026;-91
2021/08/30 03:46:02;;;;;;;3.55;1.90;;;;;;;17.77;58.79;101537.72;5014137;28;20033;-91
2021/08/30 03:48:29;;;;;;;5.13;2.30;;;;;;;17.79;58.62;101545.53;5014322;28;20026;-91
2021/08/30 03:50:55;;;;;;;5.80;1.92;;;;;;;17.76;59.08;101546.63;4996572;28;20560;-91
2021/08/30 03:53:22;;;;;;;3.92;2.22;;;;;;;17.50;60.17;101545.22;5014161;28;20029;-91
2021/08/30 03:55:49;;;;;;;4.22;2.08;;;;;;;17.72;59.01;101542.53;5014067;28;20032;-91
2021/08/30 03:58:18;;;;;;;5.57;2.42;;;;;;;17.77;59.30;101547.47;4996647;28;20117;-91
2021/08/30 04:00:44;;;;;;;5.93;2.50;;;;;;;17.70;59.24;101552.44;4996403;28;20029;-91
2021/08/30 04:03:12;;;;;;;8.77;2.17;;;;;;;17.69;59.21;101544.59;5013874;28;20029;-91
2021/08/30 04:05:39;;;;;;;6.20;2.28;;;;;;;17.71;59.68;101548.81;5013550;28;20079;-91
2021/08/30 04:08:08;;;;;;;4.57;2.17;;;;;;;17.60;59.89;101554.16;5014026;28;20103;-91
2021/08/30 04:10:34;;;;;;;6.00;2.30;;;;;;;17.70;59.41;101541.00;5013821;28;20388;-91
2021/08/30 04:13:01;;;;;;;8.63;2.75;;;;;;;17.63;59.15;101551.22;5013326;28;20026;-91
2021/08/30 04:15:28;;;;;;;6.07;2.70;;;;;;;17.73;59.16;101546.03;5013718;28;20383;-91
2021/08/30 04:17:53;;;;;;;4.15;2.47;;;;;;;17.65;59.89;101546.66;4995981;28;20029;-91
2021/08/30 04:20:19;;;;;;;6.00;3.50;;;;;;;17.55;59.67;101551.00;4995908;28;20096;-91
2021/08/30 04:22:44;;;;;;;7.53;2.40;;;;;;;17.69;59.41;101550.75;5013611;28;20057;-90
2021/08/30 04:25:11;;;;;;;4.63;2.20;;;;;;;17.70;59.40;101541.81;5013372;28;20061;-90
2021/08/30 04:27:37;;;;;;;3.95;2.40;;;;;;;17.68;59.68;101543.75;5013392;28;20038;-91
2021/08/30 04:30:03;;;;;;;3.72;2.58;;;;;;;17.66;59.99;101548.34;5013322;28;20034;-91
2021/08/30 04:32:32;;;;;;;7.55;2.13;;;;;;;17.60;60.25;101543.53;5013250;28;20026;-91
2021/08/30 04:34:58;;;;;;;4.50;2.40;;;;;;;17.51;60.19;101541.59;5013552;28;20463;-90
2021/08/30 04:37:24;;;;;;;4.78;2.30;;;;;;;17.50;60.71;101540.75;5013475;28;20488;-90
2021/08/30 04:39:49;;;;;;;4.13;2.13;;;;;;;17.47;60.47;101541.00;5013263;28;20076;-90
2021/08/30 04:42:15;;;;;;;4.70;2.13;;;;;;;17.53;60.69;101547.63;5013058;28;20026;-90
2021/08/30 04:44:41;;;;;;;5.00;2.08;;;;;;;17.53;60.85;101544.97;5012981;28;20048;-90
2021/08/30 04:47:06;;;;;;;2.78;1.90;;;;;;;17.41;60.94;101550.28;5013083;28;20484;-91
2021/08/30 04:49:32;;;;;;;2.90;1.67;;;;;;;17.53;60.24;101553.78;5013235;28;20026;-90
2021/08/30 04:51:57;;;;;;;5.57;2.47;;;;;;;17.48;60.90;101552.47;5013086;28;20419;-90
2021/08/30 04:54:23;;;;;;;4.70;2.28;;;;;;;17.40;60.95;101551.25;5013154;28;20026;-90
2021/08/30 04:56:48;;;;;;;2.95;1.60;;;;;;;17.48;60.83;101563.09;5013101;28;20439;-91
2021/08/30 04:59:14;;;;;;;3.50;1.70;;;;;;;17.50;61.11;101561.16;5012732;28;20416;-91
2021/08/30 05:01:40;;;;;;;5.07;1.98;;;;;;;17.50;61.06;101555.84;5012642;28;20113;-91
2021/08/30 05:04:05;;;;;;;2.63;1.60;;;;;;;17.55;60.59;101558.97;5012874;28;20026;-91
2021/08/30 05:06:30;;;;;;;3.30;1.55;;;;;;;17.54;60.84;101565.25;5012797;28;20038;-90
2021/08/30 05:08:56;;;;;;;4.28;1.85;;;;;;;17.48;61.04;101565.75;5013179;28;20125;-90
2021/08/30 05:11:21;;;;;;;3.95;1.42;;;;;;;17.48;60.89;101563.09;5013009;28;20058;-90
2021/08/30 05:13:47;;;;;;;4.43;1.70;;;;;;;17.51;60.60;101563.66;5012583;28;20026;-90
2021/08/30 05:16:12;;;;;;;3.75;1.77;;;;;;;17.50;61.20;101571.78;5012635;28;20472;-90
2021/08/30 05:18:39;;;;;;;3.55;1.60;;;;;;;17.37;61.68;101586.00;4994982;28;20484;-91
2021/08/30 05:21:05;;;;;;;3.60;1.67;;;;;;;17.42;61.47;101580.34;5012773;28;20577;-90
2021/08/30 05:23:30;;;;;;;3.00;1.95;;;;;;;17.49;60.61;101586.00;5012638;28;20026;-90
2021/08/30 05:25:56;;;;;;;6.90;1.80;;;;;;;17.50;60.79;101585.91;5012361;28;20483;-90
2021/08/30 05:28:21;;;;;;;4.57;2.15;;;;;;;17.39;61.45;101586.72;5013088;28;20500;-90
2021/08/30 05:30:46;;;;;;;7.22;2.00;;;;;;;17.41;61.45;101584.78;5013591;28;20018;-91
2021/08/30 05:33:12;;;;;;;5.75;2.03;;;;;;;17.42;61.28;101581.19;5012543;28;20014;-91
2021/08/30 05:35:37;;;;;;;3.60;1.80;;;;;;;17.44;61.58;101584.56;5012704;28;20037;-91
2021/08/30 05:38:02;;;;;;;6.03;2.17;;;;;;;17.42;61.55;101578.53;5012886;28;20064;-90
2021/08/30 05:40:28;;;;;;;5.22;2.40;;;;;;;17.38;61.36;101578.91;4995548;28;20034;-90
2021/08/30 05:42:53;;;;;;;6.07;2.22;;;;;;;17.36;61.65;101573.72;5013205;28;20080;-91
2021/08/30 05:45:19;;;;;;;3.67;2.13;;;;;;;17.40;61.53;101580.47;5012139;28;20108;-90
2021/08/30 05:47:44;;;;;;;6.07;2.55;;;;;;;17.47;61.48;101582.63;4994537;28;20041;-90
2021/08/30 05:50:10;;;;;;;5.97;2.45;;;;;;;17.49;61.61;101581.53;5013108;28;20026;-90
2021/08/30 05:52:35;;;;;;;5.15;2.40;;;;;;;17.50;61.63;101577.94;5012393;28;20412;-90
2021/08/30 05:55:01;;;;;;;5.03;2.53;;;;;;;17.50;61.68;101566.47;5012372;28;20026;-90
2021/08/30 05:57:26;;;;;;;4.22;2.15;;;;;;;17.27;62.79;101579.72;5014001;28;20025;-90
2021/08/30 05:59:52;;;;;;;5.57;2.80;;;;;;;17.29;62.20;101580.44;5012139;28;20487;-90
2021/08/30 06:02:17;;;;;;;6.45;2.80;;;;;;;17.39;61.49;101575.25;5012343;28;20084;-90
2021/08/30 06:04:42;;;;;;;5.75;2.60;;;;;;;17.42;61.88;101575.03;5011982;28;20023;-90
2021/08/30 06:07:08;;;;;;;4.65;2.10;;;;;;;17.43;62.10;101571.41;5012232;28;20034;-90
2021/08/30 06:09:33;;;;;;;3.45;2.00;;;;;;;17.54;61.53;101574.06;5012296;28;20030;-90
2021/08/30 06:11:59;;;;;;;5.25;2.13;;;;;;;17.44;62.03;101579.25;5012020;28;20044;-90
2021/08/30 06:14:24;;;;;;;3.35;1.83;;;;;;;17.58;61.68;101577.34;5011924;28;20180;-90
2021/08/30 06:16:49;;;;;;;4.13;1.95;;;;;;;17.49;62.26;101580.69;5011767;28;20022;-90
2021/08/30 06:19:15;;;;;;;3.72;2.38;;;;;;;17.59;61.54;101589.63;5012406;28;20464;-90
2021/08/30 06:21:40;;;;;;;5.13;1.80;;;;;;;17.51;62.18;101589.38;5016011;28;20515;-89
2021/08/30 06:24:06;;;;;;;5.85;2.45;;;;;;;17.54;61.87;101589.16;5014159;28;20026;-90
2021/08/30 06:26:33;;;;;;;4.60;2.10;;;;;;;17.50;62.03;101593.03;5012256;28;20041;-90
2021/08/30 06:28:59;;;;;;;4.40;2.50;;;;;;;17.54;62.00;101592.66;5011890;28;20022;-90
2021/08/30 06:31:24;;;;;;;4.28;2.10;;;;;;;17.60;62.23;101596.66;5012188;28;20109;-91
2021/08/30 06:33:50;;;;;;;9.10;2.83;;;;;;;17.52;62.79;101596.41;5012209;28;20155;-90
2021/08/30 06:36:15;;;;;;;6.05;2.13;;;;;;;17.60;62.64;101599.28;5014231;28;20034;-90
2021/08/30 06:38:40;;;;;;;3.95;2.15;;;;;;;17.69;62.22;101593.25;5015812;28;20034;-90
2021/08/30 06:41:06;;;;;;;5.03;2.25;;;;;;;17.41;63.30;101600.72;5016242;28;20052;-90
2021/08/30 06:43:31;;;;;;;5.32;2.55;;;;;;;17.62;62.76;101598.19;5016029;28;20050;-90
2021/08/30 06:45:56;;;;;;;3.63;2.20;;;;;;;17.64;62.88;101595.44;5015651;28;20468;-90
2021/08/30 06:48:22;;;;;;;3.03;1.90;;;;;;;17.55;63.30;101596.16;5016183;28;20060;-90
2021/08/30 06:50:47;;;;;;;4.95;2.17;;;;;;;17.39;64.18;101592.03;5015763;28;20408;-90
2021/08/30 06:53:14;;;;;;;3.63;2.28;;;;;;;17.53;63.23;101590.94;5015791;28;20037;-90
2021/08/30 06:55:39;;;;;;;3.80;1.95;;;;;;;17.76;62.78;101594.44;5015593;28;20030;-89
2021/08/30 06:58:05;;;;;;;4.80;2.03;;;;;;;17.86;62.52;101588.44;5015397;28;20443;-89
2021/08/30 07:00:30;;;;;;;5.00;2.22;;;;;;;17.88;62.63;101587.34;5015225;28;20041;-90
2021/08/30 07:02:55;;;;;;;2.97;1.67;;;;;;;17.82;62.79;101588.66;5017836;28;20447;-88
2021/08/30 07:05:21;;;;;;;3.95;2.03;;;;;;;17.96;62.63;101590.22;5015046;28;20033;-90
2021/08/30 07:07:47;;;;;;;3.70;2.17;;;;;;;17.99;62.61;101584.69;5015067;28;20396;-90
2021/08/30 07:10:12;;;;;;;3.38;1.95;;;;;;;17.97;62.37;101596.38;5014978;28;20029;-90
2021/08/30 07:12:37;;;;;;;3.30;1.95;;;;;;;17.92;63.01;101603.91;5014950;28;20057;-90
2021/08/30 07:15:03;;;;;;;5.05;2.20;;;;;;;18.04;62.02;101590.44;4997141;28;20034;-90
2021/08/30 07:17:29;;;;;;;7.55;2.35;;;;;;;17.97;62.39;101596.38;5015120;28;20022;-89
2021/08/30 07:19:54;;;;;;;7.57;2.20;;;;;;;17.93;62.83;101605.56;5016941;28;20029;-90
2021/08/30 07:22:19;;;;;;;4.50;2.22;;;;;;;17.90;63.40;101600.53;5015830;28;20022;-90
2021/08/30 07:24:45;;;;;;;9.27;3.72;;;;;;;17.95;62.77;101601.84;5015149;28;20026;-90
2021/08/30 07:27:11;;;;;;;3.88;2.17;;;;;;;18.14;62.18;101603.84;5015167;28;20303;-91
2021/08/30 07:29:37;;;;;;;5.93;2.00;;;;;;;18.00;62.38;101604.97;5014945;28;20026;-91
2021/08/30 07:32:03;;;;;;;3.28;2.40;;;;;;;18.11;62.86;101609.44;5015277;28;20045;-91
2021/08/30 07:34:28;;;;;;;2.45;1.80;;;;;;;18.04;62.89;101597.59;5014600;28;20109;-90
2021/08/30 07:36:54;;;;;;;5.95;2.08;;;;;;;18.13;62.15;101607.50;4997138;28;20109;-90
2021/08/30 07:39:20;;;;;;;3.08;1.90;;;;;;;18.21;62.38;101605.03;5014914;28;20029;-91
2021/08/30 07:41:46;;;;;;;3.33;2.20;;;;;;;18.05;63.01;101609.91;5015070;28;20036;-91
2021/08/30 07:44:12;;;;;;;5.00;2.15;;;;;;;18.21;63.00;101604.22;5014562;28;20030;-90
2021/08/30 07:46:37;;;;;;;5.38;2.42;;;;;;;18.06;63.30;101614.25;5014082;28;20129;-89
2021/08/30 07:49:03;;;;;;;4.82;2.42;;;;;;;18.09;63.03;101616.69;5014448;28;20022;-90
2021/08/30 07:51:28;;;;;;;3.58;2.10;;;;;;;18.26;61.94;101611.81;5014779;28;20084;-90
2021/08/30 07:53:54;;;;;;;5.38;2.08;;;;;;;18.30;62.01;101613.22;5014519;28;20357;-91
2021/08/30 07:56:20;;;;;;;4.75;1.98;;;;;;;18.17;62.45;101616.91;5014291;28;20034;-90
2021/08/30 07:58:45;;;;;;;4.57;2.30;;;;;;;18.40;61.70;101619.47;5012580;28;20076;-90
2021/08/30 08:01:11;;;;;;;5.68;2.10;;;;;;;18.37;62.29;101625.06;5012783;28;20442;-90
2021/08/30 08:03:36;;;;;;;3.80;1.92;;;;;;;18.52;62.08;101625.63;5013764;28;20485;-90
2021/08/30 08:06:01;;;;;;;3.08;1.90;;;;;;;18.45;62.22;101627.94;5013573;28;20014;-90
2021/08/30 08:08:27;;;;;;;3.47;1.73;;;;;;;18.46;62.19;101620.81;5014097;28;20033;-90
2021/08/30 08:10:52;;;;;;;6.40;2.25;;;;;;;18.19;63.44;101622.09;5013567;28;20022;-90
2021/08/30 08:13:18;;;;;;;5.13;2.30;;;;;;;18.28;62.92;101620.50;5013904;28;20034;-90
2021/08/30 08:15:43;;;;;;;3.45;2.05;;;;;;;18.37;63.10;101630.38;5013613;28;20416;-90
2021/08/30 08:18:09;;;;;;;5.03;2.10;;;;;;;18.50;62.58;101635.53;5013348;28;20050;-91
2021/08/30 08:20:34;;;;;;;2.35;1.70;;;;;;;18.68;62.05;101633.16;5013515;28;20350;-90
2021/08/30 08:23:02;;;;;;;5.78;2.40;;;;;;;18.78;62.20;101639.44;5012452;28;20086;-88
2021/08/30 08:25:28;;;;;;;4.35;1.73;;;;;;;18.77;62.31;101637.72;5013013;28;20026;-90
2021/08/30 08:27:54;;;;;;;6.53;2.03;;;;;;;18.71;62.00;101636.44;5013468;28;20084;-88
2021/08/30 08:30:20;;;;;;;3.60;1.90;;;;;;;18.46;63.76;101644.72;5013175;28;20080;-88
2021/08/30 08:32:46;;;;;;;3.00;1.98;;;;;;;18.61;62.98;101644.31;5013098;28;20030;-88
2021/08/30 08:35:12;;;;;;;5.53;2.00;;;;;;;18.62;62.78;101645.16;5013040;28;20057;-90
2021/08/30 08:37:39;;;;;;;4.35;2.05;;;;;;;18.80;62.49;101648.16;5010648;28;20025;-88
2021/08/30 08:40:06;;;;;;;3.63;1.90;;;;;;;18.91;61.89;101650.75;5012327;28;20080;-90
2021/08/30 08:42:32;;;;;;;3.65;1.98;;;;;;;18.89;62.54;101642.06;5013334;28;20109;-87
2021/08/30 08:44:57;;;;;;;3.80;1.80;;;;;;;18.98;61.73;101635.97;5012895;28;20500;-88
2021/08/30 08:47:23;;;;;;;5.32;1.75;;;;;;;19.33;60.54;101655.25;5013058;28;20380;-89
2021/08/30 08:49:52;;;;;;;4.40;1.70;;;;;;;19.40;60.29;101651.94;5014247;28;20030;-88
2021/08/30 08:52:20;;;;;;;6.00;1.75;;;;;;;19.41;60.16;101656.28;5013600;28;20468;-89
2021/08/30 08:54:45;;;;;;;5.22;2.10;;;;;;;19.76;60.02;101656.91;5012916;28;20036;-88
2021/08/30 08:57:10;;;;;;;3.80;1.40;;;;;;;19.85;59.62;101660.59;5013033;28;20033;-89
2021/08/30 08:59:38;;;;;;;3.28;1.70;;;;;;;20.18;58.76;101652.28;5012902;28;20097;-89
2021/08/30 09:02:06;;;;;;;5.50;1.83;;;;;;;20.29;58.81;101659.31;5012861;28;20022;-88
2021/08/30 09:04:33;;;;;;;4.15;1.83;;;;;;;19.77;60.28;101663.94;5012778;28;20033;-89
2021/08/30 09:07:13;;;;;;;3.20;1.65;;;;;;;19.85;60.33;101668.59;5013069;28;20392;-89
2021/08/30 09:09:40;;;;;;;3.08;1.75;;;;;;;20.05;59.63;101664.19;5014057;28;20034;-89
2021/08/30 09:12:17;;;;;;;5.40;1.92;;;;;;;19.91;60.14;101663.56;5011421;28;20026;-88
2021/08/30 09:14:43;;;;;;;4.63;2.33;;;;;;;19.97;59.59;101662.19;5022489;28;20025;-89
2021/08/30 09:17:10;;;;;;;4.70;2.20;;;;;;;19.96;59.73;101668.50;5012873;28;20519;-89
2021/08/30 09:19:37;;;;;;;3.80;2.30;;;;;;;20.04;59.07;101675.81;5015756;28;20029;-89
2021/08/30 09:22:04;;;;;;;6.35;2.03;;;;;;;20.02;59.76;101673.28;5014313;28;20048;-89
2021/08/30 09:24:31;;;;;;;2.17;1.42;;;;;;;20.11;59.00;101667.13;5012449;28;20111;-89
2021/08/30 09:27:05;;;;;;;4.53;1.83;;;;;;;20.14;59.75;101674.00;5012305;28;20365;-89
2021/08/30 09:29:34;;;;;;;2.88;1.90;;;;;;;20.08;59.90;101670.06;5011715;28;20558;-88
2021/08/30 09:32:06;;;;;;;4.60;2.25;;;;;;;19.85;60.13;101671.28;5012131;28;20388;-89
2021/08/30 09:34:36;;;;;;;4.15;2.28;;;;;;;19.74;60.65;101670.34;5013091;28;20087;-89
2021/08/30 09:37:04;;;;;;;6.55;2.35;;;;;;;19.80;61.19;101677.81;5023195;28;20030;-88
2021/08/30 09:39:32;;;;;;;4.90;2.08;;;;;;;19.91;60.90;101678.72;4992642;28;20034;-89
2021/08/30 09:41:59;;;;;;;3.78;2.17;;;;;;;19.88;61.09;101677.16;4992865;28;20033;-88
2021/08/30 09:44:27;;;;;;;5.68;2.25;;;;;;;19.79;61.13;101678.81;5003253;28;20037;-89
2021/08/30 09:46:53;;;;;;;4.75;2.55;;;;;;;19.76;61.88;101671.06;5008336;28;20021;-89
2021/08/30 09:49:23;;;;;;;6.70;1.90;;;;;;;19.68;61.79;101676.19;5012473;28;20033;-89
2021/08/30 09:51:49;;;;;;;2.10;1.83;;;;;;;19.89;61.52;101672.69;5012142;28;20048;-89
2021/08/30 09:54:18;;;;;;;4.05;2.65;;;;;;;20.05;60.96;101670.34;5012074;28;20108;-89
2021/08/30 09:56:44;;;;;;;4.28;2.17;;;;;;;19.96;61.74;101668.50;5012000;28;20021;-89
2021/08/30 09:59:11;;;;;;;3.85;2.55;;;;;;;20.16;61.31;101675.59;5011982;28;20022;-89
2021/08/30 10:01:38;;;;;;;3.63;2.40;;;;;;;20.07;60.72;101678.22;5011956;28;20029;-89
2021/08/30 10:04:06;;;;;;;4.82;2.33;;;;;;;20.08;61.25;101678.06;5011801;28;20022;-89
2021/08/30 10:06:35;;;;;;;5.70;3.38;;;;;;;20.06;60.62;101679.19;5011633;28;20033;-89
2021/08/30 10:09:02;;;;;;;5.57;2.35;;;;;;;20.16;60.96;101683.59;5012079;28;20300;-88
2021/08/30 10:11:28;;;;;;;4.53;2.22;;;;;;;20.12;59.30;101687.50;5014642;28;20034;-88
2021/08/30 10:13:54;;;;;;;5.85;1.90;;;;;;;20.28;59.82;101686.13;5015913;28;20026;-88
2021/08/30 10:16:20;;;;;;;5.20;2.30;;;;;;;20.40;58.69;101687.72;5014486;28;20447;-88
2021/08/30 10:18:50;;;;;;;8.93;2.72;;;;;;;20.52;59.68;101683.94;5017239;28;20029;-88
2021/08/30 10:21:16;;;;;;;3.70;2.42;;;;;;;20.59;58.66;101679.75;5017997;28;20026;-88
2021/08/30 10:23:42;;;;;;;6.45;2.08;;;;;;;20.79;57.85;101685.09;5014631;28;20045;-89
2021/08/30 10:26:11;;;;;;;4.78;2.08;;;;;;;20.85;58.17;101681.88;5019714;28;20071;-89
2021/08/30 10:28:43;;;;;;;9.82;2.50;;;;;;;20.80;58.40;101692.16;5004608;28;20026;-86
2021/08/30 10:31:21;;;;;;;;;;;;;;;20.93;58.09;101695.38;5015986;28;20085;-86
2021/08/30 10:33:52;;;;;;;3.33;1.92;;;;;;;20.93;57.96;101689.19;5016324;28;19917;-86
2021/08/30 10:36:20;;;;;;;5.22;2.95;;;;;;;20.95;58.20;101688.09;5015345;28;20041;-85
2021/08/30 10:39:08;;;;;;;9.38;1.85;;;;;;;21.08;57.30;101685.09;5016307;28;20361;-85
2021/08/30 10:41:39;;;;;;;6.97;2.45;;;;;;;20.96;57.29;101684.41;5015615;28;20026;-85
2021/08/30 10:44:17;;;;;;;11.02;2.60;;;;;;;21.07;57.80;101682.56;5023983;28;20017;-85
2021/08/30 10:46:44;;;;;;;8.77;2.30;;;;;;;20.89;58.47;101677.09;5017400;28;20041;-85
2021/08/30 10:49:46;;;;;;;5.35;2.15;;;;;;;21.22;56.76;101683.81;5015114;28;20072;-85
2021/08/30 10:52:16;;;;;;;3.42;2.00;;;;;;;21.07;57.17;101679.91;4974825;28;20098;-86
2021/08/30 10:54:53;;;;;;;5.68;2.10;;;;;;;21.16;57.96;101674.56;5006945;28;20033;-85
2021/08/30 10:57:18;;;;;;;7.85;3.20;;;;;;;21.00;58.62;101682.31;5012925;28;20025;-86
2021/08/30 10:59:47;;;;;;;5.65;2.17;;;;;;;21.06;60.38;101675.56;5014341;28;20372;-86
2021/08/30 11:02:14;;;;;;;8.52;1.98;;;;;;;21.12;59.74;101673.16;5013008;28;20061;-86
2021/08/30 11:04:41;;;;;;;3.50;2.13;;;;;;;21.29;59.98;101660.91;5022841;28;20071;-85
2021/08/30 11:07:08;;;;;;;3.42;2.05;;;;;;;21.51;59.59;101666.94;5012280;28;20693;-85
2021/08/30 11:09:35;;;;;;;3.80;1.88;;;;;;;21.66;57.93;101661.94;5024186;28;20041;-85
2021/08/30 11:12:08;;;;;;;4.75;2.25;;;;;;;21.73;58.03;101663.91;5019667;28;20104;-85
2021/08/30 11:14:35;;;;;;;4.30;1.67;;;;;;;21.63;58.79;101675.63;5018805;28;20087;-92
2021/08/30 11:17:01;;;;;;;3.97;2.03;;;;;;;21.57;57.36;101677.03;5023482;28;20057;-85
2021/08/30 11:19:26;;;;;;;3.75;1.95;;;;;;;21.61;56.50;101675.75;5014909;28;20030;-85
2021/08/30 11:21:54;;;;;;;3.13;1.52;;;;;;;21.54;56.10;101678.19;5021856;28;20052;-85
2021/08/30 11:24:36;;;;;;;4.15;1.50;;;;;;;21.67;56.62;101667.16;5014834;28;20442;-85
2021/08/30 11:27:08;;;;;;;3.72;1.85;;;;;;;21.91;56.43;101671.16;5013726;28;20030;-85